sensor_id;sensor_type;location;lat;lon;timestamp;P1;durP1;ratioP1;P2;durP2;ratioP2
20298;SDS011;10308;42.688;23.256;2022-09-23T00:01:56;6.03;;;5.53;;
20298;SDS011;10308;42.688;23.256;2022-09-23T00:04:24;6.72;;;6.10;;
20298;SDS011;10308;42.688;23.256;2022-09-23T00:06:51;7.05;;;6.40;;
20298;SDS011;10308;42.688;23.256;2022-09-23T00:09:18;7.22;;;6.53;;
20298;SDS011;10308;42.688;23.256;2022-09-23T00:11:45;6.68;;;6.07;;
20298;SDS011;10308;42.688;23.256;2022-09-23T00:14:12;7.68;;;6.97;;
20298;SDS011;10308;42.688;23.256;2022-09-23T00:16:39;7.32;;;6.72;;
20298;SDS011;10308;42.688;23.256;2022-09-23T00:19:06;8.73;;;7.63;;
20298;SDS011;10308;42.688;23.256;2022-09-23T00:21:34;7.28;;;6.57;;
20298;SDS011;10308;42.688;23.256;2022-09-23T00:24:00;7.35;;;6.55;;
20298;SDS011;10308;42.688;23.256;2022-09-23T00:26:27;11.80;;;8.75;;
20298;SDS011;10308;42.688;23.256;2022-09-23T00:28:54;10.27;;;8.48;;
20298;SDS011;10308;42.688;23.256;2022-09-23T00:31:21;9.27;;;8.38;;
20298;SDS011;10308;42.688;23.256;2022-09-23T00:33:53;9.85;;;8.82;;
20298;SDS011;10308;42.688;23.256;2022-09-23T00:36:20;9.15;;;7.95;;
20298;SDS011;10308;42.688;23.256;2022-09-23T00:38:49;7.90;;;7.10;;
20298;SDS011;10308;42.688;23.256;2022-09-23T00:41:15;6.68;;;6.07;;
20298;SDS011;10308;42.688;23.256;2022-09-23T00:43:43;6.55;;;5.95;;
20298;SDS011;10308;42.688;23.256;2022-09-23T00:46:12;6.40;;;5.90;;
20298;SDS011;10308;42.688;23.256;2022-09-23T00:48:41;5.70;;;5.30;;
20298;SDS011;10308;42.688;23.256;2022-09-23T00:51:10;5.30;;;4.90;;
20298;SDS011;10308;42.688;23.256;2022-09-23T00:53:40;5.78;;;5.28;;
20298;SDS011;10308;42.688;23.256;2022-09-23T00:56:09;4.80;;;4.50;;
20298;SDS011;10308;42.688;23.256;2022-09-23T00:58:37;4.78;;;4.38;;
20298;SDS011;10308;42.688;23.256;2022-09-23T01:01:05;4.45;;;4.15;;
20298;SDS011;10308;42.688;23.256;2022-09-23T01:03:32;4.65;;;4.32;;
20298;SDS011;10308;42.688;23.256;2022-09-23T01:05:58;4.93;;;4.53;;
20298;SDS011;10308;42.688;23.256;2022-09-23T01:08:25;4.78;;;4.43;;
20298;SDS011;10308;42.688;23.256;2022-09-23T01:10:55;5.00;;;4.68;;
20298;SDS011;10308;42.688;23.256;2022-09-23T01:13:29;4.80;;;4.40;;
20298;SDS011;10308;42.688;23.256;2022-09-23T01:16:02;4.70;;;4.40;;
20298;SDS011;10308;42.688;23.256;2022-09-23T01:18:32;4.85;;;4.55;;
20298;SDS011;10308;42.688;23.256;2022-09-23T01:21:07;5.13;;;4.72;;
20298;SDS011;10308;42.688;23.256;2022-09-23T01:26:47;5.03;;;4.63;;
20298;SDS011;10308;42.688;23.256;2022-09-23T01:32:25;5.10;;;4.70;;
20298;SDS011;10308;42.688;23.256;2022-09-23T01:35:01;4.72;;;4.38;;
20298;SDS011;10308;42.688;23.256;2022-09-23T01:37:32;5.60;;;5.20;;
20298;SDS011;10308;42.688;23.256;2022-09-23T01:40:02;5.15;;;4.78;;
20298;SDS011;10308;42.688;23.256;2022-09-23T01:42:33;5.70;;;5.10;;
20298;SDS011;10308;42.688;23.256;2022-09-23T01:45:04;4.57;;;4.28;;
20298;SDS011;10308;42.688;23.256;2022-09-23T01:47:35;4.93;;;4.45;;
20298;SDS011;10308;42.688;23.256;2022-09-23T01:50:06;4.80;;;4.43;;
20298;SDS011;10308;42.688;23.256;2022-09-23T01:52:54;5.00;;;4.60;;
20298;SDS011;10308;42.688;23.256;2022-09-23T01:55:23;4.78;;;4.20;;
20298;SDS011;10308;42.688;23.256;2022-09-23T01:57:54;4.68;;;4.28;;
20298;SDS011;10308;42.688;23.256;2022-09-23T02:00:23;4.50;;;4.10;;
20298;SDS011;10308;42.688;23.256;2022-09-23T02:02:53;4.53;;;4.22;;
20298;SDS011;10308;42.688;23.256;2022-09-23T02:05:24;5.38;;;4.88;;
20298;SDS011;10308;42.688;23.256;2022-09-23T02:07:54;4.90;;;4.60;;
20298;SDS011;10308;42.688;23.256;2022-09-23T02:10:25;4.80;;;4.40;;
20298;SDS011;10308;42.688;23.256;2022-09-23T02:12:57;4.97;;;4.47;;
20298;SDS011;10308;42.688;23.256;2022-09-23T02:15:27;5.40;;;5.00;;
20298;SDS011;10308;42.688;23.256;2022-09-23T02:17:58;5.28;;;4.88;;
20298;SDS011;10308;42.688;23.256;2022-09-23T02:20:28;5.05;;;4.65;;
20298;SDS011;10308;42.688;23.256;2022-09-23T02:22:58;5.00;;;4.60;;
20298;SDS011;10308;42.688;23.256;2022-09-23T02:25:28;5.18;;;4.65;;
20298;SDS011;10308;42.688;23.256;2022-09-23T02:27:59;4.93;;;4.53;;
20298;SDS011;10308;42.688;23.256;2022-09-23T02:30:34;4.65;;;4.25;;
20298;SDS011;10308;42.688;23.256;2022-09-23T02:33:05;4.47;;;4.07;;
20298;SDS011;10308;42.688;23.256;2022-09-23T02:35:36;4.47;;;4.07;;
20298;SDS011;10308;42.688;23.256;2022-09-23T02:38:11;4.55;;;4.25;;
20298;SDS011;10308;42.688;23.256;2022-09-23T02:40:45;4.20;;;3.80;;
20298;SDS011;10308;42.688;23.256;2022-09-23T02:43:18;4.30;;;4.00;;
20298;SDS011;10308;42.688;23.256;2022-09-23T02:45:47;4.43;;;4.03;;
20298;SDS011;10308;42.688;23.256;2022-09-23T02:48:17;4.20;;;3.90;;
20298;SDS011;10308;42.688;23.256;2022-09-23T02:50:44;3.65;;;3.35;;
20298;SDS011;10308;42.688;23.256;2022-09-23T02:53:12;4.00;;;3.70;;
20298;SDS011;10308;42.688;23.256;2022-09-23T02:55:39;4.38;;;3.97;;
20298;SDS011;10308;42.688;23.256;2022-09-23T02:58:07;4.03;;;3.72;;
20298;SDS011;10308;42.688;23.256;2022-09-23T03:00:38;4.03;;;3.63;;
20298;SDS011;10308;42.688;23.256;2022-09-23T03:03:25;4.45;;;4.15;;
20298;SDS011;10308;42.688;23.256;2022-09-23T03:06:03;5.72;;;5.22;;
20298;SDS011;10308;42.688;23.256;2022-09-23T03:08:36;5.22;;;4.35;;
20298;SDS011;10308;42.688;23.256;2022-09-23T03:11:09;4.90;;;4.50;;
20298;SDS011;10308;42.688;23.256;2022-09-23T03:13:49;4.97;;;4.47;;
20298;SDS011;10308;42.688;23.256;2022-09-23T03:16:22;4.93;;;4.50;;
20298;SDS011;10308;42.688;23.256;2022-09-23T03:18:58;4.50;;;4.20;;
20298;SDS011;10308;42.688;23.256;2022-09-23T03:21:31;5.00;;;4.60;;
20298;SDS011;10308;42.688;23.256;2022-09-23T03:24:01;5.10;;;4.60;;
20298;SDS011;10308;42.688;23.256;2022-09-23T03:26:30;4.35;;;4.05;;
20298;SDS011;10308;42.688;23.256;2022-09-23T03:28:59;4.78;;;4.28;;
20298;SDS011;10308;42.688;23.256;2022-09-23T03:31:28;4.50;;;4.10;;
20298;SDS011;10308;42.688;23.256;2022-09-23T03:33:57;4.35;;;3.97;;
20298;SDS011;10308;42.688;23.256;2022-09-23T03:36:26;4.80;;;4.32;;
20298;SDS011;10308;42.688;23.256;2022-09-23T03:39:14;5.05;;;4.65;;
20298;SDS011;10308;42.688;23.256;2022-09-23T03:41:49;4.75;;;4.35;;
20298;SDS011;10308;42.688;23.256;2022-09-23T03:44:18;5.35;;;4.43;;
20298;SDS011;10308;42.688;23.256;2022-09-23T03:46:46;5.10;;;4.60;;
20298;SDS011;10308;42.688;23.256;2022-09-23T03:49:17;4.70;;;4.30;;
20298;SDS011;10308;42.688;23.256;2022-09-23T03:51:44;4.40;;;4.03;;
20298;SDS011;10308;42.688;23.256;2022-09-23T03:54:11;4.35;;;4.00;;
20298;SDS011;10308;42.688;23.256;2022-09-23T03:56:38;4.60;;;4.20;;
20298;SDS011;10308;42.688;23.256;2022-09-23T03:59:04;4.95;;;4.55;;
20298;SDS011;10308;42.688;23.256;2022-09-23T04:01:31;5.18;;;4.70;;
20298;SDS011;10308;42.688;23.256;2022-09-23T04:03:58;5.00;;;4.57;;
20298;SDS011;10308;42.688;23.256;2022-09-23T04:06:27;5.88;;;5.00;;
20298;SDS011;10308;42.688;23.256;2022-09-23T04:08:53;5.72;;;5.10;;
20298;SDS011;10308;42.688;23.256;2022-09-23T04:11:20;5.47;;;5.07;;
20298;SDS011;10308;42.688;23.256;2022-09-23T04:13:47;6.00;;;5.40;;
20298;SDS011;10308;42.688;23.256;2022-09-23T04:16:14;5.60;;;5.20;;
20298;SDS011;10308;42.688;23.256;2022-09-23T04:18:40;5.53;;;5.13;;
20298;SDS011;10308;42.688;23.256;2022-09-23T04:21:07;5.65;;;5.10;;
20298;SDS011;10308;42.688;23.256;2022-09-23T04:23:35;5.75;;;5.25;;
20298;SDS011;10308;42.688;23.256;2022-09-23T04:26:02;5.72;;;5.22;;
20298;SDS011;10308;42.688;23.256;2022-09-23T04:28:30;6.32;;;5.82;;
20298;SDS011;10308;42.688;23.256;2022-09-23T04:30:57;6.53;;;5.82;;
20298;SDS011;10308;42.688;23.256;2022-09-23T04:33:23;6.35;;;5.50;;
20298;SDS011;10308;42.688;23.256;2022-09-23T04:35:51;5.88;;;5.38;;
20298;SDS011;10308;42.688;23.256;2022-09-23T04:38:18;6.15;;;5.40;;
20298;SDS011;10308;42.688;23.256;2022-09-23T04:40:47;5.80;;;5.30;;
20298;SDS011;10308;42.688;23.256;2022-09-23T04:43:14;6.63;;;5.88;;
20298;SDS011;10308;42.688;23.256;2022-09-23T04:45:41;6.20;;;5.70;;
20298;SDS011;10308;42.688;23.256;2022-09-23T04:48:08;6.15;;;5.55;;
20298;SDS011;10308;42.688;23.256;2022-09-23T04:50:35;7.97;;;6.20;;
20298;SDS011;10308;42.688;23.256;2022-09-23T04:53:02;6.80;;;6.10;;
20298;SDS011;10308;42.688;23.256;2022-09-23T04:55:29;6.25;;;5.70;;
20298;SDS011;10308;42.688;23.256;2022-09-23T04:57:58;6.78;;;6.18;;
20298;SDS011;10308;42.688;23.256;2022-09-23T05:00:24;9.10;;;7.15;;
20298;SDS011;10308;42.688;23.256;2022-09-23T05:02:52;6.45;;;5.85;;
20298;SDS011;10308;42.688;23.256;2022-09-23T05:05:19;5.90;;;5.40;;
20298;SDS011;10308;42.688;23.256;2022-09-23T05:07:48;6.10;;;5.57;;
20298;SDS011;10308;42.688;23.256;2022-09-23T05:10:15;6.10;;;5.53;;
20298;SDS011;10308;42.688;23.256;2022-09-23T05:12:43;6.93;;;6.35;;
20298;SDS011;10308;42.688;23.256;2022-09-23T05:15:11;6.60;;;6.05;;
20298;SDS011;10308;42.688;23.256;2022-09-23T05:17:40;6.90;;;6.28;;
20298;SDS011;10308;42.688;23.256;2022-09-23T05:20:07;7.28;;;6.68;;
20298;SDS011;10308;42.688;23.256;2022-09-23T05:22:34;7.90;;;7.10;;
20298;SDS011;10308;42.688;23.256;2022-09-23T05:25:01;7.18;;;6.60;;
20298;SDS011;10308;42.688;23.256;2022-09-23T05:27:28;7.20;;;6.60;;
20298;SDS011;10308;42.688;23.256;2022-09-23T05:29:55;6.90;;;6.20;;
20298;SDS011;10308;42.688;23.256;2022-09-23T05:32:23;7.22;;;6.63;;
20298;SDS011;10308;42.688;23.256;2022-09-23T05:34:50;6.93;;;6.32;;
20298;SDS011;10308;42.688;23.256;2022-09-23T05:37:19;6.28;;;5.78;;
20298;SDS011;10308;42.688;23.256;2022-09-23T05:39:46;6.90;;;6.20;;
20298;SDS011;10308;42.688;23.256;2022-09-23T05:42:14;6.53;;;5.95;;
20298;SDS011;10308;42.688;23.256;2022-09-23T05:44:41;6.43;;;5.93;;
20298;SDS011;10308;42.688;23.256;2022-09-23T05:47:08;6.60;;;6.10;;
20298;SDS011;10308;42.688;23.256;2022-09-23T05:49:36;7.10;;;5.95;;
20298;SDS011;10308;42.688;23.256;2022-09-23T05:52:03;7.45;;;5.95;;
20298;SDS011;10308;42.688;23.256;2022-09-23T05:54:30;5.85;;;5.35;;
20298;SDS011;10308;42.688;23.256;2022-09-23T05:56:57;6.22;;;5.72;;
20298;SDS011;10308;42.688;23.256;2022-09-23T05:59:23;6.55;;;6.00;;
20298;SDS011;10308;42.688;23.256;2022-09-23T06:01:50;6.00;;;5.50;;
20298;SDS011;10308;42.688;23.256;2022-09-23T06:04:17;5.68;;;5.28;;
20298;SDS011;10308;42.688;23.256;2022-09-23T06:06:45;5.68;;;5.18;;
20298;SDS011;10308;42.688;23.256;2022-09-23T06:09:13;5.45;;;5.05;;
20298;SDS011;10308;42.688;23.256;2022-09-23T06:11:40;5.40;;;5.00;;
20298;SDS011;10308;42.688;23.256;2022-09-23T06:14:08;5.72;;;5.30;;
20298;SDS011;10308;42.688;23.256;2022-09-23T06:16:36;5.35;;;4.95;;
20298;SDS011;10308;42.688;23.256;2022-09-23T06:19:03;6.10;;;5.50;;
20298;SDS011;10308;42.688;23.256;2022-09-23T06:21:30;5.90;;;5.50;;
20298;SDS011;10308;42.688;23.256;2022-09-23T06:23:59;6.30;;;5.57;;
20298;SDS011;10308;42.688;23.256;2022-09-23T06:26:26;6.32;;;5.82;;
20298;SDS011;10308;42.688;23.256;2022-09-23T06:28:58;5.30;;;4.90;;
20298;SDS011;10308;42.688;23.256;2022-09-23T06:31:25;5.10;;;4.70;;
20298;SDS011;10308;42.688;23.256;2022-09-23T06:33:52;5.20;;;4.80;;
20298;SDS011;10308;42.688;23.256;2022-09-23T06:36:19;5.32;;;4.93;;
20298;SDS011;10308;42.688;23.256;2022-09-23T06:38:46;5.82;;;5.28;;
20298;SDS011;10308;42.688;23.256;2022-09-23T06:41:15;5.45;;;5.03;;
20298;SDS011;10308;42.688;23.256;2022-09-23T06:43:42;5.43;;;5.05;;
20298;SDS011;10308;42.688;23.256;2022-09-23T06:46:08;6.05;;;5.45;;
20298;SDS011;10308;42.688;23.256;2022-09-23T06:48:39;5.93;;;5.43;;
20298;SDS011;10308;42.688;23.256;2022-09-23T06:51:08;5.95;;;5.35;;
20298;SDS011;10308;42.688;23.256;2022-09-23T06:53:36;5.85;;;5.35;;
20298;SDS011;10308;42.688;23.256;2022-09-23T06:56:04;5.72;;;5.30;;
20298;SDS011;10308;42.688;23.256;2022-09-23T06:58:33;6.03;;;5.50;;
20298;SDS011;10308;42.688;23.256;2022-09-23T07:01:02;5.70;;;5.30;;
20298;SDS011;10308;42.688;23.256;2022-09-23T07:03:31;5.80;;;5.40;;
20298;SDS011;10308;42.688;23.256;2022-09-23T07:05:58;5.95;;;5.45;;
20298;SDS011;10308;42.688;23.256;2022-09-23T07:08:26;5.35;;;4.95;;
20298;SDS011;10308;42.688;23.256;2022-09-23T07:10:54;5.50;;;5.00;;
20298;SDS011;10308;42.688;23.256;2022-09-23T07:13:22;5.05;;;4.57;;
20298;SDS011;10308;42.688;23.256;2022-09-23T07:15:51;5.55;;;5.15;;
20298;SDS011;10308;42.688;23.256;2022-09-23T07:18:19;5.57;;;5.18;;
20298;SDS011;10308;42.688;23.256;2022-09-23T07:20:48;5.20;;;4.80;;
20298;SDS011;10308;42.688;23.256;2022-09-23T07:23:14;4.82;;;4.50;;
20298;SDS011;10308;42.688;23.256;2022-09-23T07:25:42;4.57;;;4.28;;
20298;SDS011;10308;42.688;23.256;2022-09-23T07:28:10;4.85;;;4.45;;
20298;SDS011;10308;42.688;23.256;2022-09-23T07:30:37;4.82;;;4.43;;
20298;SDS011;10308;42.688;23.256;2022-09-23T07:33:06;4.68;;;4.38;;
20298;SDS011;10308;42.688;23.256;2022-09-23T07:35:33;4.40;;;4.10;;
20298;SDS011;10308;42.688;23.256;2022-09-23T07:38:01;4.85;;;4.55;;
20298;SDS011;10308;42.688;23.256;2022-09-23T07:40:27;6.00;;;5.50;;
20298;SDS011;10308;42.688;23.256;2022-09-23T07:42:55;5.53;;;5.07;;
20298;SDS011;10308;42.688;23.256;2022-09-23T07:45:21;5.32;;;4.85;;
20298;SDS011;10308;42.688;23.256;2022-09-23T07:47:49;5.00;;;4.50;;
20298;SDS011;10308;42.688;23.256;2022-09-23T07:50:17;4.40;;;4.10;;
20298;SDS011;10308;42.688;23.256;2022-09-23T07:52:44;4.88;;;4.50;;
20298;SDS011;10308;42.688;23.256;2022-09-23T07:55:11;4.70;;;4.30;;
20298;SDS011;10308;42.688;23.256;2022-09-23T07:57:38;4.65;;;4.35;;
20298;SDS011;10308;42.688;23.256;2022-09-23T08:00:06;4.43;;;4.13;;
20298;SDS011;10308;42.688;23.256;2022-09-23T08:02:34;4.63;;;4.32;;
20298;SDS011;10308;42.688;23.256;2022-09-23T08:05:00;5.00;;;4.50;;
20298;SDS011;10308;42.688;23.256;2022-09-23T08:07:29;4.68;;;4.22;;
20298;SDS011;10308;42.688;23.256;2022-09-23T08:09:58;4.75;;;4.35;;
20298;SDS011;10308;42.688;23.256;2022-09-23T08:12:26;5.00;;;4.60;;
20298;SDS011;10308;42.688;23.256;2022-09-23T08:14:53;4.40;;;4.03;;
20298;SDS011;10308;42.688;23.256;2022-09-23T08:17:20;4.68;;;4.38;;
20298;SDS011;10308;42.688;23.256;2022-09-23T08:19:46;4.53;;;4.13;;
20298;SDS011;10308;42.688;23.256;2022-09-23T08:22:13;4.80;;;4.50;;
20298;SDS011;10308;42.688;23.256;2022-09-23T08:24:42;4.78;;;4.45;;
20298;SDS011;10308;42.688;23.256;2022-09-23T08:27:08;4.38;;;3.97;;
20298;SDS011;10308;42.688;23.256;2022-09-23T08:29:36;4.70;;;4.40;;
20298;SDS011;10308;42.688;23.256;2022-09-23T08:32:03;4.47;;;4.18;;
20298;SDS011;10308;42.688;23.256;2022-09-23T08:34:30;4.22;;;3.80;;
20298;SDS011;10308;42.688;23.256;2022-09-23T08:36:57;4.57;;;4.15;;
20298;SDS011;10308;42.688;23.256;2022-09-23T08:39:23;4.40;;;4.03;;
20298;SDS011;10308;42.688;23.256;2022-09-23T08:41:58;4.28;;;3.95;;
20298;SDS011;10308;42.688;23.256;2022-09-23T08:44:31;3.85;;;3.55;;
20298;SDS011;10308;42.688;23.256;2022-09-23T08:47:08;4.05;;;3.75;;
20298;SDS011;10308;42.688;23.256;2022-09-23T08:49:44;4.47;;;4.10;;
20298;SDS011;10308;42.688;23.256;2022-09-23T08:52:17;3.90;;;3.60;;
20298;SDS011;10308;42.688;23.256;2022-09-23T08:54:45;3.95;;;3.65;;
20298;SDS011;10308;42.688;23.256;2022-09-23T08:57:23;3.75;;;3.50;;
20298;SDS011;10308;42.688;23.256;2022-09-23T08:59:56;4.15;;;3.80;;
20298;SDS011;10308;42.688;23.256;2022-09-23T09:02:23;4.22;;;3.92;;
20298;SDS011;10308;42.688;23.256;2022-09-23T09:04:51;3.65;;;3.35;;
20298;SDS011;10308;42.688;23.256;2022-09-23T09:07:22;3.70;;;3.40;;
20298;SDS011;10308;42.688;23.256;2022-09-23T09:09:55;3.10;;;2.88;;
20298;SDS011;10308;42.688;23.256;2022-09-23T09:12:25;3.83;;;3.53;;
20298;SDS011;10308;42.688;23.256;2022-09-23T09:14:56;3.70;;;3.40;;
20298;SDS011;10308;42.688;23.256;2022-09-23T09:17:26;3.30;;;3.10;;
20298;SDS011;10308;42.688;23.256;2022-09-23T09:20:02;3.67;;;3.38;;
20298;SDS011;10308;42.688;23.256;2022-09-23T09:22:40;3.35;;;3.10;;
20298;SDS011;10308;42.688;23.256;2022-09-23T09:25:16;5.45;;;3.50;;
20298;SDS011;10308;42.688;23.256;2022-09-23T09:27:49;3.35;;;3.15;;
20298;SDS011;10308;42.688;23.256;2022-09-23T09:30:17;4.30;;;3.90;;
20298;SDS011;10308;42.688;23.256;2022-09-23T09:32:46;3.50;;;3.22;;
20298;SDS011;10308;42.688;23.256;2022-09-23T09:35:23;2.63;;;2.53;;
20298;SDS011;10308;42.688;23.256;2022-09-23T09:37:53;2.50;;;2.40;;
20298;SDS011;10308;42.688;23.256;2022-09-23T09:40:20;2.83;;;2.63;;
20298;SDS011;10308;42.688;23.256;2022-09-23T09:42:47;3.13;;;2.85;;
20298;SDS011;10308;42.688;23.256;2022-09-23T09:45:17;3.78;;;2.70;;
20298;SDS011;10308;42.688;23.256;2022-09-23T09:47:53;3.17;;;2.97;;
20298;SDS011;10308;42.688;23.256;2022-09-23T09:53:14;2.97;;;2.78;;
20298;SDS011;10308;42.688;23.256;2022-09-23T09:55:49;3.47;;;3.17;;
20298;SDS011;10308;42.688;23.256;2022-09-23T09:58:25;2.97;;;2.78;;
20298;SDS011;10308;42.688;23.256;2022-09-23T10:00:54;2.97;;;2.78;;
20298;SDS011;10308;42.688;23.256;2022-09-23T10:03:28;2.88;;;2.67;;
20298;SDS011;10308;42.688;23.256;2022-09-23T10:05:57;3.10;;;2.90;;
20298;SDS011;10308;42.688;23.256;2022-09-23T10:08:25;3.42;;;3.13;;
20298;SDS011;10308;42.688;23.256;2022-09-23T10:10:59;3.38;;;3.17;;
20298;SDS011;10308;42.688;23.256;2022-09-23T10:13:29;3.33;;;3.13;;
20298;SDS011;10308;42.688;23.256;2022-09-23T10:15:56;3.10;;;2.90;;
20298;SDS011;10308;42.688;23.256;2022-09-23T10:18:26;3.15;;;2.95;;
20298;SDS011;10308;42.688;23.256;2022-09-23T10:20:59;3.25;;;2.97;;
20298;SDS011;10308;42.688;23.256;2022-09-23T10:23:28;3.10;;;2.90;;
20298;SDS011;10308;42.688;23.256;2022-09-23T10:25:57;2.80;;;2.60;;
20298;SDS011;10308;42.688;23.256;2022-09-23T10:28:30;3.05;;;2.67;;
20298;SDS011;10308;42.688;23.256;2022-09-23T10:31:05;2.85;;;2.65;;
20298;SDS011;10308;42.688;23.256;2022-09-23T10:33:34;2.75;;;2.55;;
20298;SDS011;10308;42.688;23.256;2022-09-23T10:36:07;2.80;;;2.60;;
20298;SDS011;10308;42.688;23.256;2022-09-23T10:38:34;2.63;;;2.42;;
20298;SDS011;10308;42.688;23.256;2022-09-23T10:41:01;2.88;;;2.67;;
20298;SDS011;10308;42.688;23.256;2022-09-23T10:43:48;2.75;;;2.55;;
20298;SDS011;10308;42.688;23.256;2022-09-23T10:46:39;3.55;;;3.25;;
20298;SDS011;10308;42.688;23.256;2022-09-23T10:49:17;3.03;;;2.83;;
20298;SDS011;10308;42.688;23.256;2022-09-23T10:52:00;2.65;;;2.53;;
20298;SDS011;10308;42.688;23.256;2022-09-23T10:54:34;3.30;;;3.00;;
20298;SDS011;10308;42.688;23.256;2022-09-23T10:57:10;2.85;;;2.65;;
20298;SDS011;10308;42.688;23.256;2022-09-23T11:00:02;2.90;;;2.70;;
20298;SDS011;10308;42.688;23.256;2022-09-23T11:02:40;3.22;;;2.95;;
20298;SDS011;10308;42.688;23.256;2022-09-23T11:05:18;2.50;;;2.30;;
20298;SDS011;10308;42.688;23.256;2022-09-23T11:07:52;2.58;;;2.38;;
20298;SDS011;10308;42.688;23.256;2022-09-23T11:10:33;2.65;;;2.42;;
20298;SDS011;10308;42.688;23.256;2022-09-23T11:13:15;4.25;;;2.65;;
20298;SDS011;10308;42.688;23.256;2022-09-23T11:15:52;1.90;;;1.80;;
20298;SDS011;10308;42.688;23.256;2022-09-23T11:18:27;1.73;;;1.63;;
20298;SDS011;10308;42.688;23.256;2022-09-23T11:21:03;2.30;;;2.10;;
20298;SDS011;10308;42.688;23.256;2022-09-23T11:23:41;1.80;;;1.70;;
20298;SDS011;10308;42.688;23.256;2022-09-23T11:26:22;2.25;;;2.03;;
20298;SDS011;10308;42.688;23.256;2022-09-23T11:29:03;2.00;;;1.90;;
20298;SDS011;10308;42.688;23.256;2022-09-23T11:31:40;2.10;;;2.00;;
20298;SDS011;10308;42.688;23.256;2022-09-23T11:34:21;1.80;;;1.70;;
20298;SDS011;10308;42.688;23.256;2022-09-23T11:36:59;2.05;;;1.88;;
20298;SDS011;10308;42.688;23.256;2022-09-23T11:39:29;2.05;;;1.95;;
20298;SDS011;10308;42.688;23.256;2022-09-23T11:42:00;2.58;;;1.73;;
20298;SDS011;10308;42.688;23.256;2022-09-23T11:44:28;2.10;;;1.90;;
20298;SDS011;10308;42.688;23.256;2022-09-23T11:47:00;1.70;;;1.60;;
20298;SDS011;10308;42.688;23.256;2022-09-23T11:49:31;2.58;;;1.90;;
20298;SDS011;10308;42.688;23.256;2022-09-23T11:52:04;2.03;;;1.83;;
20298;SDS011;10308;42.688;23.256;2022-09-23T11:54:33;1.50;;;1.40;;
20298;SDS011;10308;42.688;23.256;2022-09-23T11:57:03;1.85;;;1.75;;
20298;SDS011;10308;42.688;23.256;2022-09-23T11:59:34;2.20;;;2.10;;
20298;SDS011;10308;42.688;23.256;2022-09-23T12:02:10;1.90;;;1.80;;
20298;SDS011;10308;42.688;23.256;2022-09-23T12:04:42;1.83;;;1.73;;
20298;SDS011;10308;42.688;23.256;2022-09-23T12:07:15;2.55;;;2.00;;
20298;SDS011;10308;42.688;23.256;2022-09-23T12:09:47;1.70;;;1.60;;
20298;SDS011;10308;42.688;23.256;2022-09-23T12:12:19;1.77;;;1.67;;
20298;SDS011;10308;42.688;23.256;2022-09-23T12:14:53;2.08;;;1.90;;
20298;SDS011;10308;42.688;23.256;2022-09-23T12:17:26;2.15;;;1.95;;
20298;SDS011;10308;42.688;23.256;2022-09-23T12:20:21;1.90;;;1.80;;
20298;SDS011;10308;42.688;23.256;2022-09-23T12:23:00;1.88;;;1.77;;
20298;SDS011;10308;42.688;23.256;2022-09-23T12:25:33;1.90;;;1.80;;
20298;SDS011;10308;42.688;23.256;2022-09-23T12:28:03;2.00;;;1.90;;
20298;SDS011;10308;42.688;23.256;2022-09-23T12:30:33;1.80;;;1.70;;
20298;SDS011;10308;42.688;23.256;2022-09-23T12:33:09;1.63;;;1.52;;
20298;SDS011;10308;42.688;23.256;2022-09-23T12:35:46;1.50;;;1.45;;
20298;SDS011;10308;42.688;23.256;2022-09-23T12:38:13;2.55;;;1.90;;
20298;SDS011;10308;42.688;23.256;2022-09-23T12:40:44;4.05;;;2.15;;
20298;SDS011;10308;42.688;23.256;2022-09-23T12:43:15;3.08;;;1.95;;
20298;SDS011;10308;42.688;23.256;2022-09-23T12:45:42;2.10;;;2.00;;
20298;SDS011;10308;42.688;23.256;2022-09-23T12:51:16;3.75;;;2.30;;
20298;SDS011;10308;42.688;23.256;2022-09-23T12:57:08;2.80;;;2.42;;
20298;SDS011;10308;42.688;23.256;2022-09-23T12:59:54;2.42;;;2.25;;
20298;SDS011;10308;42.688;23.256;2022-09-23T13:02:26;3.10;;;2.80;;
20298;SDS011;10308;42.688;23.256;2022-09-23T13:04:58;2.80;;;2.60;;
20298;SDS011;10308;42.688;23.256;2022-09-23T13:07:58;2.20;;;2.05;;
20298;SDS011;10308;42.688;23.256;2022-09-23T13:10:29;2.53;;;2.33;;
20298;SDS011;10308;42.688;23.256;2022-09-23T13:12:57;2.88;;;2.60;;
20298;SDS011;10308;42.688;23.256;2022-09-23T13:15:26;2.53;;;2.30;;
20298;SDS011;10308;42.688;23.256;2022-09-23T13:21:04;2.92;;;2.72;;
20298;SDS011;10308;42.688;23.256;2022-09-23T13:23:41;4.10;;;3.72;;
20298;SDS011;10308;42.688;23.256;2022-09-23T13:26:46;2.92;;;2.72;;
20298;SDS011;10308;42.688;23.256;2022-09-23T13:29:15;2.10;;;2.00;;
20298;SDS011;10308;42.688;23.256;2022-09-23T13:31:45;2.28;;;2.17;;
20298;SDS011;10308;42.688;23.256;2022-09-23T13:34:12;2.63;;;2.42;;
20298;SDS011;10308;42.688;23.256;2022-09-23T13:36:43;2.92;;;2.67;;
20298;SDS011;10308;42.688;23.256;2022-09-23T13:39:12;2.80;;;2.50;;
20298;SDS011;10308;42.688;23.256;2022-09-23T13:41:40;2.58;;;2.38;;
20298;SDS011;10308;42.688;23.256;2022-09-23T13:44:11;2.80;;;2.60;;
20298;SDS011;10308;42.688;23.256;2022-09-23T13:46:43;2.28;;;2.15;;
20298;SDS011;10308;42.688;23.256;2022-09-23T13:49:17;2.30;;;2.20;;
20298;SDS011;10308;42.688;23.256;2022-09-23T13:51:48;2.88;;;2.67;;
20298;SDS011;10308;42.688;23.256;2022-09-23T13:54:27;3.08;;;2.78;;
20298;SDS011;10308;42.688;23.256;2022-09-23T13:56:55;3.28;;;2.80;;
20298;SDS011;10308;42.688;23.256;2022-09-23T13:59:23;3.13;;;2.80;;
20298;SDS011;10308;42.688;23.256;2022-09-23T14:02:00;3.13;;;2.70;;
20298;SDS011;10308;42.688;23.256;2022-09-23T14:04:28;2.83;;;2.63;;
20298;SDS011;10308;42.688;23.256;2022-09-23T14:06:56;2.63;;;2.42;;
20298;SDS011;10308;42.688;23.256;2022-09-23T14:09:24;2.55;;;2.35;;
20298;SDS011;10308;42.688;23.256;2022-09-23T14:11:52;2.40;;;2.30;;
20298;SDS011;10308;42.688;23.256;2022-09-23T14:14:20;2.42;;;2.33;;
20298;SDS011;10308;42.688;23.256;2022-09-23T14:16:47;2.47;;;2.38;;
20298;SDS011;10308;42.688;23.256;2022-09-23T14:19:16;2.47;;;2.38;;
20298;SDS011;10308;42.688;23.256;2022-09-23T14:21:45;2.20;;;2.10;;
20298;SDS011;10308;42.688;23.256;2022-09-23T14:24:15;2.80;;;2.50;;
20298;SDS011;10308;42.688;23.256;2022-09-23T14:26:45;2.63;;;2.40;;
20298;SDS011;10308;42.688;23.256;2022-09-23T14:29:14;2.58;;;2.38;;
20298;SDS011;10308;42.688;23.256;2022-09-23T14:31:43;2.00;;;1.90;;
20298;SDS011;10308;42.688;23.256;2022-09-23T14:34:40;2.80;;;2.60;;
20298;SDS011;10308;42.688;23.256;2022-09-23T14:40:16;2.80;;;2.60;;
20298;SDS011;10308;42.688;23.256;2022-09-23T14:42:44;2.53;;;2.38;;
20298;SDS011;10308;42.688;23.256;2022-09-23T14:45:13;2.60;;;2.40;;
20298;SDS011;10308;42.688;23.256;2022-09-23T14:47:42;2.50;;;2.40;;
20298;SDS011;10308;42.688;23.256;2022-09-23T14:50:15;3.15;;;2.70;;
20298;SDS011;10308;42.688;23.256;2022-09-23T14:56:06;2.63;;;2.47;;
20298;SDS011;10308;42.688;23.256;2022-09-23T14:58:39;2.92;;;2.72;;
20298;SDS011;10308;42.688;23.256;2022-09-23T15:01:22;3.38;;;2.88;;
20298;SDS011;10308;42.688;23.256;2022-09-23T15:03:51;2.60;;;2.40;;
20298;SDS011;10308;42.688;23.256;2022-09-23T15:06:18;3.53;;;3.22;;
20298;SDS011;10308;42.688;23.256;2022-09-23T15:08:47;3.10;;;2.58;;
20298;SDS011;10308;42.688;23.256;2022-09-23T15:11:15;3.47;;;3.27;;
20298;SDS011;10308;42.688;23.256;2022-09-23T15:13:42;3.40;;;3.20;;
20298;SDS011;10308;42.688;23.256;2022-09-23T15:16:12;2.88;;;2.67;;
20298;SDS011;10308;42.688;23.256;2022-09-23T15:18:41;3.65;;;2.78;;